VYA605 SBCY-SCIR
Flight info
| Callsign | VYA605 |
|---|---|
| Flight time | N/A |
| Altitude | 36000 |
| Route | TOSAR UM799 ATERU/N0464F380 UM799 SIBOX/N0458F400 UM799 REPEV UL416 VUNIK DCT 32S074W DCT OSANI |
| Aircraft | CL60/M-SADE3FGHIJ3J4J7P2RWXY/HB1D1 |
Departure
| Time | 2026-04-30 20:41 |
|---|---|
| Airport | Várzea Grande–Marechal Rondon International Airport (SBCY) |
Arrival
| Time | N/A |
|---|---|
| Airport | Robinson Crusoe Airport (SCIR) |
| Time | Latitude | Longitude | Altitude | Speed | Heading |
|---|---|---|---|---|---|
| 2026-04-30 20:13 | -15.65362 | -56.11816 | 604 ft | 0 kts | 242° |
| 2026-04-30 20:26 | -15.65362 | -56.11815 | 604 ft | 0 kts | 242° |
| 2026-04-30 20:35 | -15.65362 | -56.11816 | 604 ft | 0 kts | 242° |
| 2026-04-30 20:37 | -15.65362 | -56.11823 | 604 ft | 7 kts | 297° |
| 2026-04-30 20:37 | -15.65282 | -56.11820 | 605 ft | 13 kts | 352° |
| 2026-04-30 20:37 | -15.65193 | -56.11853 | 606 ft | 13 kts | 332° |
| 2026-04-30 20:38 | -15.65114 | -56.11888 | 608 ft | 9 kts | 359° |
| 2026-04-30 20:38 | -15.65058 | -56.11825 | 608 ft | 15 kts | 50° |
| 2026-04-30 20:38 | -15.64979 | -56.11841 | 609 ft | 13 kts | 329° |
| 2026-04-30 20:39 | -15.64767 | -56.11954 | 615 ft | 19 kts | 333° |
| 2026-04-30 20:39 | -15.64650 | -56.12015 | 619 ft | 18 kts | 333° |
| 2026-04-30 20:39 | -15.64535 | -56.12077 | 622 ft | 18 kts | 332° |
| 2026-04-30 20:40 | -15.64417 | -56.12134 | 625 ft | 10 kts | 145° |
| 2026-04-30 20:40 | -15.64571 | -56.12052 | 621 ft | 63 kts | 153° |
| 2026-04-30 20:40 | -15.65250 | -56.11691 | 604 ft | 147 kts | 153° |
| 2026-04-30 20:41 | -15.67221 | -56.10677 | 2017 ft | 169 kts | 153° |
| 2026-04-30 20:41 | -15.68319 | -56.10152 | 2732 ft | 184 kts | 153° |
| 2026-04-30 20:41 | -15.69669 | -56.09505 | 2810 ft | 237 kts | 152° |
| 2026-04-30 20:41 | -15.71200 | -56.08745 | 3433 ft | 258 kts | 151° |
| 2026-04-30 20:42 | -15.72848 | -56.07905 | 4330 ft | 268 kts | 151° |
| 2026-04-30 20:42 | -15.74484 | -56.07055 | 5297 ft | 273 kts | 151° |
| 2026-04-30 20:42 | -15.77869 | -56.05217 | 7308 ft | 280 kts | 149° |
| 2026-04-30 20:43 | -15.79553 | -56.04292 | 8259 ft | 284 kts | 149° |
| 2026-04-30 20:43 | -15.81310 | -56.03327 | 9185 ft | 288 kts | 149° |
| 2026-04-30 20:43 | -15.83088 | -56.02349 | 10053 ft | 292 kts | 149° |
| 2026-04-30 20:44 | -15.86741 | -56.00337 | 11721 ft | 303 kts | 149° |
| 2026-04-30 20:44 | -15.88619 | -55.99301 | 12523 ft | 308 kts | 149° |
| 2026-04-30 20:44 | -15.92475 | -55.97195 | 13995 ft | 319 kts | 151° |
| 2026-04-30 20:45 | -15.96538 | -55.95103 | 15403 ft | 330 kts | 151° |
| 2026-04-30 20:45 | -15.98615 | -55.94035 | 16064 ft | 336 kts | 151° |
| 2026-04-30 20:45 | -16.00742 | -55.92940 | 16737 ft | 340 kts | 150° |
| 2026-04-30 20:46 | -16.07235 | -55.89596 | 18742 ft | 350 kts | 151° |
| 2026-04-30 20:46 | -16.09429 | -55.88466 | 19383 ft | 353 kts | 151° |
| 2026-04-30 20:47 | -16.13872 | -55.86177 | 20614 ft | 358 kts | 151° |
| 2026-04-30 20:47 | -16.16108 | -55.85023 | 21180 ft | 361 kts | 151° |
| 2026-04-30 20:48 | -16.20644 | -55.82684 | 22306 ft | 367 kts | 152° |
| 2026-04-30 20:48 | -16.22962 | -55.81488 | 22867 ft | 370 kts | 152° |
| 2026-04-30 20:48 | -16.25260 | -55.80301 | 23397 ft | 374 kts | 152° |
| 2026-04-30 20:48 | -16.27612 | -55.79087 | 23930 ft | 377 kts | 152° |
| 2026-04-30 20:49 | -16.29998 | -55.77855 | 24455 ft | 381 kts | 152° |
| 2026-04-30 20:49 | -16.32371 | -55.76629 | 24942 ft | 385 kts | 152° |
| 2026-04-30 20:49 | -16.34564 | -55.75496 | 25424 ft | 387 kts | 152° |
| 2026-04-30 20:50 | -16.39424 | -55.72982 | 26373 ft | 394 kts | 153° |
| 2026-04-30 20:50 | -16.41902 | -55.71701 | 26827 ft | 397 kts | 153° |
| 2026-04-30 20:50 | -16.44396 | -55.70416 | 27256 ft | 401 kts | 154° |
| 2026-04-30 20:50 | -16.47010 | -55.69369 | 27671 ft | 404 kts | 161° |
| 2026-04-30 20:51 | -16.49687 | -55.68438 | 28104 ft | 407 kts | 161° |
| 2026-04-30 20:51 | -16.55119 | -55.66532 | 28972 ft | 412 kts | 161° |
| 2026-04-30 20:51 | -16.57869 | -55.65566 | 29380 ft | 415 kts | 161° |
| 2026-04-30 20:52 | -16.60612 | -55.64601 | 29746 ft | 418 kts | 161° |
| 2026-04-30 20:52 | -16.63417 | -55.63614 | 30128 ft | 420 kts | 161° |
| 2026-04-30 20:52 | -16.69008 | -55.61644 | 30823 ft | 426 kts | 161° |
| 2026-04-30 20:53 | -16.71849 | -55.60642 | 31153 ft | 429 kts | 161° |
| 2026-04-30 20:53 | -16.74700 | -55.59636 | 31473 ft | 431 kts | 161° |
| 2026-04-30 20:53 | -16.77534 | -55.58636 | 31813 ft | 433 kts | 161° |
| 2026-04-30 20:54 | -16.83326 | -55.56589 | 32422 ft | 437 kts | 161° |
| 2026-04-30 20:54 | -16.86219 | -55.55566 | 32680 ft | 440 kts | 161° |
| 2026-04-30 20:54 | -16.89098 | -55.54547 | 32971 ft | 442 kts | 161° |
| 2026-04-30 20:55 | -16.95026 | -55.52449 | 33559 ft | 445 kts | 161° |
| 2026-04-30 20:55 | -16.97970 | -55.51406 | 33863 ft | 446 kts | 161° |
| 2026-04-30 20:55 | -17.00907 | -55.50365 | 34263 ft | 445 kts | 161° |
| 2026-04-30 20:56 | -17.06937 | -55.49001 | 35087 ft | 439 kts | 176° |
| 2026-04-30 20:56 | -17.09984 | -55.48942 | 35438 ft | 437 kts | 184° |
| 2026-04-30 20:56 | -17.15980 | -55.49317 | 36009 ft | 436 kts | 185° |
| 2026-04-30 20:57 | -17.19018 | -55.49511 | 36289 ft | 436 kts | 185° |
| 2026-04-30 20:57 | -17.22056 | -55.49704 | 36533 ft | 436 kts | 185° |
| 2026-04-30 20:57 | -17.25103 | -55.49898 | 36791 ft | 435 kts | 185° |
| 2026-04-30 20:58 | -17.31121 | -55.50282 | 37266 ft | 434 kts | 185° |
| 2026-04-30 20:58 | -17.34179 | -55.50477 | 37498 ft | 434 kts | 185° |
| 2026-04-30 20:58 | -17.37159 | -55.50667 | 37696 ft | 434 kts | 185° |
| 2026-04-30 20:58 | -17.40181 | -55.50860 | 37898 ft | 433 kts | 185° |
| 2026-04-30 20:59 | -17.46238 | -55.51247 | 38301 ft | 432 kts | 185° |
| 2026-04-30 20:59 | -17.49247 | -55.51438 | 38476 ft | 432 kts | 185° |
| 2026-04-30 21:00 | -17.55279 | -55.51824 | 38842 ft | 432 kts | 185° |
| 2026-04-30 21:00 | -17.61257 | -55.52506 | 39241 ft | 427 kts | 195° |
| 2026-04-30 21:01 | -17.66802 | -55.54587 | 39548 ft | 421 kts | 211° |
| 2026-04-30 21:01 | -17.69320 | -55.56161 | 39691 ft | 418 kts | 218° |
| 2026-04-30 21:01 | -17.73869 | -55.59924 | 39859 ft | 418 kts | 222° |
| 2026-04-30 21:02 | -17.76156 | -55.61867 | 39856 ft | 420 kts | 222° |
| 2026-04-30 21:02 | -17.80729 | -55.65752 | 39859 ft | 424 kts | 222° |
| 2026-04-30 21:03 | -17.85345 | -55.69675 | 39855 ft | 429 kts | 222° |
| 2026-04-30 21:03 | -17.90023 | -55.73654 | 39853 ft | 433 kts | 222° |
| 2026-04-30 21:04 | -17.94718 | -55.77651 | 39855 ft | 437 kts | 222° |
| 2026-04-30 21:04 | -18.01874 | -55.83747 | 39851 ft | 442 kts | 222° |
| 2026-04-30 21:05 | -18.06659 | -55.87828 | 39853 ft | 446 kts | 222° |
| 2026-04-30 21:05 | -18.11532 | -55.91985 | 39854 ft | 449 kts | 222° |
| 2026-04-30 21:06 | -18.16349 | -55.96099 | 39845 ft | 451 kts | 222° |
| 2026-04-30 21:06 | -18.21205 | -56.00250 | 39851 ft | 453 kts | 222° |
| 2026-04-30 21:07 | -18.26078 | -56.04416 | 39852 ft | 454 kts | 223° |
| 2026-04-30 21:07 | -18.30988 | -56.08619 | 39848 ft | 456 kts | 222° |
| 2026-04-30 21:08 | -18.35901 | -56.12826 | 39852 ft | 457 kts | 223° |
| 2026-04-30 21:08 | -18.40845 | -56.17065 | 39850 ft | 458 kts | 223° |
| 2026-04-30 21:09 | -18.45690 | -56.21220 | 39849 ft | 459 kts | 223° |
| 2026-04-30 21:09 | -18.50615 | -56.25449 | 39849 ft | 460 kts | 223° |
| 2026-04-30 21:10 | -18.55600 | -56.29731 | 39848 ft | 460 kts | 223° |
| 2026-04-30 21:10 | -18.60541 | -56.33979 | 39848 ft | 461 kts | 223° |
| 2026-04-30 21:11 | -18.65534 | -56.38276 | 39846 ft | 462 kts | 223° |
| 2026-04-30 21:11 | -18.70509 | -56.42560 | 39846 ft | 462 kts | 223° |
| 2026-04-30 21:12 | -18.75454 | -56.46821 | 39845 ft | 463 kts | 223° |
| 2026-04-30 21:12 | -18.80384 | -56.51074 | 39845 ft | 463 kts | 223° |
| 2026-04-30 21:13 | -18.85387 | -56.55392 | 39844 ft | 464 kts | 223° |
| 2026-04-30 21:13 | -18.90358 | -56.59687 | 39834 ft | 465 kts | 223° |
| 2026-04-30 21:14 | -18.95339 | -56.63993 | 39842 ft | 466 kts | 223° |
| 2026-04-30 21:14 | -19.00286 | -56.68274 | 39843 ft | 467 kts | 223° |
| 2026-04-30 21:15 | -19.05333 | -56.72644 | 39843 ft | 469 kts | 223° |
| 2026-04-30 21:15 | -19.10393 | -56.77029 | 39844 ft | 471 kts | 223° |
| 2026-04-30 21:16 | -19.15375 | -56.81350 | 39839 ft | 472 kts | 223° |
| 2026-04-30 21:16 | -19.20442 | -56.85748 | 39844 ft | 473 kts | 223° |
| 2026-04-30 21:17 | -19.25555 | -56.90190 | 39844 ft | 475 kts | 223° |
| 2026-04-30 21:17 | -19.30683 | -56.94649 | 39845 ft | 476 kts | 223° |
| 2026-04-30 21:18 | -19.35813 | -56.99114 | 39847 ft | 478 kts | 223° |
| 2026-04-30 21:18 | -19.40970 | -57.03606 | 39845 ft | 479 kts | 223° |
| 2026-04-30 21:19 | -19.46119 | -57.08095 | 39842 ft | 480 kts | 223° |
| 2026-04-30 21:19 | -19.51306 | -57.12621 | 39847 ft | 480 kts | 223° |
| 2026-04-30 21:20 | -19.56473 | -57.17133 | 39850 ft | 481 kts | 223° |
| 2026-04-30 21:20 | -19.61622 | -57.21634 | 39853 ft | 481 kts | 223° |
| 2026-04-30 21:21 | -19.66798 | -57.26162 | 39856 ft | 480 kts | 223° |
| 2026-04-30 21:22 | -19.74538 | -57.32939 | 39852 ft | 481 kts | 224° |
| 2026-04-30 21:23 | -19.84856 | -57.41989 | 39847 ft | 481 kts | 224° |
| 2026-04-30 21:23 | -19.92589 | -57.48793 | 39845 ft | 481 kts | 224° |
| 2026-04-30 21:24 | -19.97770 | -57.53350 | 39846 ft | 480 kts | 224° |
| 2026-04-30 21:24 | -20.02919 | -57.57882 | 39849 ft | 481 kts | 224° |
| 2026-04-30 21:25 | -20.10595 | -57.64646 | 39845 ft | 480 kts | 224° |